Time;durP1;ratioP1;P1;durP2;ratioP2;P2;SDS_P1;SDS_P2;PMS_P1;PMS_P2;Temp;Humidity;BMP_temperature;BMP_pressure;BME280_temperature;BME280_humidity;BME280_pressure;Samples;Min_cycle;Max_cycle;Signal;HPM_P1;HPM_P2
2023/03/31 00:01:34;;;;;;;0.60;0.60;;;11.00;99.90;;;;;;5022763;28;20110;-77
2023/03/31 00:04:03;;;;;;;0.60;0.60;;;10.90;99.90;;;;;;5037707;28;20045;-77
2023/03/31 00:06:40;;;;;;;0.60;0.60;;;10.90;99.90;;;;;;5041736;28;20111;-77
2023/03/31 00:09:20;;;;;;;0.60;0.60;;;10.80;99.90;;;;;;5037369;28;20120;-77
2023/03/31 00:11:48;;;;;;;0.60;0.60;;;10.80;99.90;;;;;;5018166;28;20049;-77
2023/03/31 00:14:15;;;;;;;0.60;0.60;;;10.60;99.90;;;;;;5039041;28;20056;-77
2023/03/31 00:16:41;;;;;;;0.60;0.60;;;10.50;99.90;;;;;;5036957;28;20059;-76
2023/03/31 00:19:11;;;;;;;0.60;0.60;;;10.50;99.90;;;;;;5040248;28;20032;-77
2023/03/31 00:21:37;;;;;;;0.60;0.60;;;10.40;99.90;;;;;;5031539;28;20052;-77
2023/03/31 00:24:05;;;;;;;0.60;0.60;;;10.40;99.90;;;;;;5021589;28;20662;-76
2023/03/31 00:26:33;;;;;;;0.60;0.60;;;10.30;99.90;;;;;;5019567;28;20107;-76
2023/03/31 00:28:59;;;;;;;0.60;0.60;;;10.40;99.90;;;;;;5020688;28;20044;-77
2023/03/31 00:31:26;;;;;;;0.60;0.60;;;10.30;99.90;;;;;;5041765;28;20041;-77
2023/03/31 00:33:52;;;;;;;0.68;0.68;;;10.30;99.90;;;;;;5016467;28;20053;-77
2023/03/31 00:36:26;;;;;;;0.70;0.70;;;10.30;99.90;;;;;;5040686;28;20120;-77
2023/03/31 00:38:58;;;;;;;0.77;0.77;;;10.10;99.90;;;;;;5037084;28;20044;-76
2023/03/31 00:41:24;;;;;;;0.70;0.70;;;10.10;99.90;;;;;;5032993;28;20127;-77
2023/03/31 00:44:24;;;;;;;0.70;0.70;;;10.10;99.90;;;;;;5034955;28;20034;-77
2023/03/31 00:47:01;;;;;;;0.80;0.80;;;10.10;99.90;;;;;;5023916;28;20064;-77
2023/03/31 00:49:49;;;;;;;0.80;0.80;;;10.10;99.90;;;;;;5021873;28;20057;-76
2023/03/31 00:52:21;;;;;;;0.80;0.80;;;10.10;99.90;;;;;;5019913;28;20052;-76
2023/03/31 00:54:55;;;;;;;0.80;0.80;;;10.00;99.90;;;;;;5035382;28;20089;-77
2023/03/31 00:57:22;;;;;;;0.80;0.80;;;9.90;99.90;;;;;;5035958;28;20283;-77
2023/03/31 00:59:56;;;;;;;0.80;0.80;;;9.90;99.90;;;;;;5016771;28;20056;-76
2023/03/31 01:02:25;;;;;;;0.80;0.80;;;9.90;99.90;;;;;;5034463;28;20056;-77
2023/03/31 01:04:58;;;;;;;0.80;0.80;;;9.90;99.90;;;;;;5033699;28;20048;-77
2023/03/31 01:07:45;;;;;;;0.80;0.80;;;9.80;99.90;;;;;;5039940;28;20037;-77
2023/03/31 01:10:11;;;;;;;0.80;0.80;;;9.70;99.90;;;;;;5019419;28;20072;-77
2023/03/31 01:12:41;;;;;;;0.80;0.80;;;9.60;99.90;;;;;;5037929;28;20045;-77
2023/03/31 01:15:08;;;;;;;0.80;0.80;;;9.70;99.90;;;;;;5035390;28;20048;-77
2023/03/31 01:17:34;;;;;;;0.80;0.80;;;9.70;99.90;;;;;;5038326;28;20366;-77
2023/03/31 01:20:12;;;;;;;0.80;0.80;;;9.80;99.90;;;;;;5038611;28;20047;-76
2023/03/31 01:22:53;;;;;;;0.90;0.90;;;9.70;99.90;;;;;;5017891;28;20124;-76
2023/03/31 01:26:00;;;;;;;0.80;0.80;;;9.80;99.90;;;;;;5034528;28;20461;-77
2023/03/31 01:28:56;;;;;;;0.80;0.80;;;9.70;99.90;;;;;;4976697;28;20038;-76
2023/03/31 01:31:30;;;;;;;0.80;0.80;;;9.80;99.90;;;;;;4977140;28;20053;-77
2023/03/31 01:34:24;;;;;;;0.80;0.80;;;9.60;99.90;;;;;;5001803;28;20045;-76
2023/03/31 01:37:02;;;;;;;0.77;0.77;;;9.70;99.90;;;;;;5036510;28;20049;-77
2023/03/31 01:40:04;;;;;;;0.80;0.80;;;9.70;99.90;;;;;;5037683;28;20032;-77
2023/03/31 01:42:48;;;;;;;0.80;0.80;;;9.70;99.90;;;;;;5036690;28;20809;-77
2023/03/31 01:45:44;;;;;;;0.80;0.80;;;9.80;99.90;;;;;;5037819;28;20033;-77
2023/03/31 01:48:40;;;;;;;0.80;0.80;;;9.90;99.90;;;;;;5039375;28;20485;-76
2023/03/31 01:51:21;;;;;;;0.80;0.80;;;9.80;99.90;;;;;;5035685;28;20041;-77
2023/03/31 01:53:59;;;;;;;0.90;0.90;;;9.90;99.90;;;;;;5037938;28;20098;-76
2023/03/31 01:56:35;;;;;;;0.80;0.80;;;9.90;99.90;;;;;;5039029;28;20095;-76
2023/03/31 01:59:25;;;;;;;0.80;0.80;;;9.80;99.90;;;;;;5018699;28;20052;-77
2023/03/31 02:01:58;;;;;;;0.80;0.80;;;10.00;99.90;;;;;;5019416;28;20145;-76
2023/03/31 02:04:30;;;;;;;0.90;0.90;;;9.90;99.90;;;;;;5035598;28;20119;-76
2023/03/31 02:07:02;;;;;;;0.80;0.80;;;10.00;99.90;;;;;;5037522;28;20647;-76
2023/03/31 02:09:34;;;;;;;0.80;0.80;;;10.00;99.90;;;;;;5037439;28;20060;-76
2023/03/31 02:12:06;;;;;;;0.80;0.80;;;10.00;99.90;;;;;;5038798;28;20076;-76
2023/03/31 02:14:34;;;;;;;0.80;0.80;;;10.00;99.90;;;;;;5034686;28;20413;-77
2023/03/31 02:17:02;;;;;;;0.80;0.80;;;10.10;99.90;;;;;;5016844;28;20052;-76
2023/03/31 02:19:38;;;;;;;0.80;0.80;;;10.10;99.90;;;;;;5035447;28;20042;-77
2023/03/31 02:22:06;;;;;;;0.90;0.90;;;10.10;99.90;;;;;;5032150;28;20041;-77
2023/03/31 02:24:35;;;;;;;0.80;0.80;;;10.00;99.90;;;;;;5036602;28;20128;-76
2023/03/31 02:27:26;;;;;;;0.88;0.88;;;10.20;99.90;;;;;;5037672;28;20049;-76
2023/03/31 02:29:54;;;;;;;0.80;0.80;;;10.10;99.90;;;;;;5037899;28;20607;-77
2023/03/31 02:32:34;;;;;;;0.80;0.80;;;10.20;99.90;;;;;;5038076;28;20057;-76
2023/03/31 02:35:00;;;;;;;0.80;0.80;;;10.20;99.90;;;;;;5029497;28;20135;-76
2023/03/31 02:37:27;;;;;;;0.90;0.90;;;10.30;99.90;;;;;;5004924;28;20040;-77
2023/03/31 02:39:57;;;;;;;0.90;0.90;;;10.30;99.90;;;;;;5041056;28;20044;-75
2023/03/31 02:42:24;;;;;;;0.80;0.80;;;10.30;99.90;;;;;;5037230;28;20104;-77
2023/03/31 02:44:50;;;;;;;0.80;0.80;;;10.30;99.90;;;;;;5036061;28;20041;-77
2023/03/31 02:47:19;;;;;;;0.80;0.80;;;10.40;99.90;;;;;;5040000;28;20037;-77
2023/03/31 02:49:49;;;;;;;0.90;0.90;;;10.30;99.90;;;;;;5039285;28;20052;-78
2023/03/31 02:52:21;;;;;;;0.80;0.80;;;10.30;99.90;;;;;;5040587;28;20041;-77
2023/03/31 02:55:11;;;;;;;0.90;0.90;;;10.40;99.90;;;;;;5038736;28;20228;-77
2023/03/31 02:58:01;;;;;;;0.90;0.90;;;10.40;99.90;;;;;;5023040;28;20446;-77
2023/03/31 03:00:36;;;;;;;0.80;0.80;;;10.40;99.90;;;;;;5042528;28;20049;-77
2023/03/31 03:03:27;;;;;;;0.80;0.80;;;10.40;99.90;;;;;;5039366;28;20036;-77
2023/03/31 03:06:16;;;;;;;0.80;0.80;;;10.50;99.90;;;;;;5037216;28;20478;-77
2023/03/31 03:09:17;;;;;;;0.85;0.85;;;10.50;99.90;;;;;;5020374;28;20049;-77
2023/03/31 03:12:10;;;;;;;0.80;0.80;;;10.50;99.90;;;;;;5037868;28;20099;-77
2023/03/31 03:14:47;;;;;;;0.88;0.88;;;10.50;99.90;;;;;;5018434;28;20498;-77
2023/03/31 03:17:23;;;;;;;0.80;0.80;;;10.50;99.90;;;;;;5040764;28;20045;-77
2023/03/31 03:19:59;;;;;;;0.90;0.90;;;10.50;99.90;;;;;;5035855;28;20069;-77
2023/03/31 03:22:25;;;;;;;0.80;0.80;;;10.50;99.90;;;;;;5038175;28;20048;-77
2023/03/31 03:24:52;;;;;;;0.88;0.88;;;10.40;99.90;;;;;;5021602;28;20452;-77
2023/03/31 03:27:21;;;;;;;0.90;0.90;;;10.50;99.90;;;;;;5023403;28;20159;-77
2023/03/31 03:29:46;;;;;;;0.82;0.82;;;10.40;99.90;;;;;;5041408;28;20099;-77
2023/03/31 03:32:12;;;;;;;0.85;0.85;;;10.50;99.90;;;;;;5022986;28;20400;-78
2023/03/31 03:34:38;;;;;;;0.95;0.95;;;10.50;99.90;;;;;;5037353;28;20037;-77
2023/03/31 03:37:04;;;;;;;0.90;0.90;;;10.30;99.90;;;;;;5041552;28;20141;-77
2023/03/31 03:39:31;;;;;;;0.80;0.80;;;10.40;99.90;;;;;;5034536;28;20136;-77
2023/03/31 03:41:56;;;;;;;0.80;0.80;;;10.40;99.90;;;;;;5041499;28;20464;-77
2023/03/31 03:44:22;;;;;;;0.80;0.80;;;10.40;99.90;;;;;;5040417;28;20033;-78
2023/03/31 03:46:48;;;;;;;0.80;0.80;;;10.30;99.90;;;;;;5038754;28;20103;-78
2023/03/31 03:49:14;;;;;;;0.80;0.80;;;10.40;99.90;;;;;;5040252;28;20029;-78
2023/03/31 03:51:39;;;;;;;0.90;0.90;;;10.40;99.90;;;;;;5037384;28;20033;-77
2023/03/31 03:54:05;;;;;;;0.90;0.90;;;10.30;99.90;;;;;;5039588;28;20035;-78
2023/03/31 03:56:31;;;;;;;0.90;0.90;;;10.40;99.90;;;;;;5032768;28;20037;-78
2023/03/31 03:58:56;;;;;;;0.90;0.90;;;10.30;99.90;;;;;;5040880;28;20033;-78
2023/03/31 04:01:22;;;;;;;0.88;0.88;;;10.30;99.90;;;;;;5039932;28;20052;-78
2023/03/31 04:03:48;;;;;;;0.90;0.90;;;10.20;99.90;;;;;;5022424;28;20037;-78
2023/03/31 04:06:14;;;;;;;0.90;0.90;;;10.20;99.90;;;;;;5008925;28;20045;-78
2023/03/31 04:08:39;;;;;;;0.90;0.90;;;10.40;99.90;;;;;;5023524;28;20134;-78
2023/03/31 04:11:16;;;;;;;0.90;0.90;;;10.20;99.90;;;;;;5021172;28;20041;-78
2023/03/31 04:13:43;;;;;;;0.90;0.90;;;10.30;99.90;;;;;;5023792;28;20056;-78
2023/03/31 04:16:09;;;;;;;0.90;0.90;;;10.20;99.90;;;;;;5036516;28;20557;-78
2023/03/31 04:18:36;;;;;;;0.90;0.90;;;10.30;99.90;;;;;;5039830;28;20048;-78
2023/03/31 04:21:05;;;;;;;0.98;0.98;;;10.40;99.90;;;;;;5023419;28;20257;-78
2023/03/31 04:23:32;;;;;;;0.90;0.90;;;10.20;99.90;;;;;;5040657;28;20037;-78
2023/03/31 04:25:58;;;;;;;0.90;0.90;;;10.20;99.90;;;;;;5037504;28;20110;-78
2023/03/31 04:28:25;;;;;;;1.00;1.00;;;10.40;99.90;;;;;;5040013;28;20770;-78
2023/03/31 04:30:53;;;;;;;0.90;0.90;;;10.40;99.90;;;;;;5020579;28;20494;-78
2023/03/31 04:33:20;;;;;;;0.95;0.95;;;10.40;99.90;;;;;;5016805;28;20044;-78
2023/03/31 04:35:48;;;;;;;1.00;1.00;;;10.30;99.90;;;;;;5040396;28;20036;-78
2023/03/31 04:38:17;;;;;;;1.00;1.00;;;10.40;99.90;;;;;;5040012;28;20517;-79
2023/03/31 04:40:45;;;;;;;0.90;0.90;;;10.30;99.90;;;;;;5038365;28;20041;-78
2023/03/31 04:43:10;;;;;;;1.00;1.00;;;10.30;99.90;;;;;;5019528;28;20047;-78
2023/03/31 04:45:36;;;;;;;1.00;1.00;;;10.50;99.90;;;;;;5038848;28;20037;-78
2023/03/31 04:48:01;;;;;;;0.90;0.90;;;10.40;99.90;;;;;;5039540;28;20508;-78
2023/03/31 04:50:27;;;;;;;0.90;0.90;;;10.40;99.90;;;;;;5038962;28;20041;-78
2023/03/31 04:52:53;;;;;;;0.90;0.90;;;10.50;99.90;;;;;;5040920;28;20048;-78
2023/03/31 04:55:19;;;;;;;0.90;0.90;;;10.40;99.90;;;;;;5037069;28;20064;-78
2023/03/31 04:57:44;;;;;;;1.00;1.00;;;10.40;99.90;;;;;;5036308;28;20037;-78
2023/03/31 05:00:11;;;;;;;1.00;1.00;;;10.40;99.90;;;;;;5017198;28;20041;-78
2023/03/31 05:02:36;;;;;;;1.00;1.00;;;10.40;99.90;;;;;;5038188;28;20381;-79
2023/03/31 05:05:03;;;;;;;1.00;1.00;;;10.40;99.90;;;;;;5018883;28;20053;-78
2023/03/31 05:07:29;;;;;;;1.00;1.00;;;10.50;99.90;;;;;;5004992;28;20057;-78
2023/03/31 05:09:54;;;;;;;1.00;1.00;;;10.40;99.90;;;;;;5007102;28;20366;-78
2023/03/31 05:12:20;;;;;;;1.00;1.00;;;10.40;99.90;;;;;;5024634;28;20740;-78
2023/03/31 05:14:46;;;;;;;1.00;1.00;;;10.50;99.90;;;;;;5019938;28;20080;-78
2023/03/31 05:17:11;;;;;;;1.02;1.02;;;10.40;99.90;;;;;;5023047;28;20071;-79
2023/03/31 05:19:37;;;;;;;1.05;1.05;;;10.40;99.90;;;;;;5038360;28;20033;-78
2023/03/31 05:22:03;;;;;;;1.00;1.00;;;10.40;99.90;;;;;;5033740;28;20107;-78
2023/03/31 05:24:28;;;;;;;0.95;0.95;;;10.40;99.90;;;;;;5028133;28;20037;-78
2023/03/31 05:26:56;;;;;;;1.00;1.00;;;10.40;99.90;;;;;;5037014;28;21520;-78
2023/03/31 05:29:23;;;;;;;1.00;1.00;;;10.40;99.90;;;;;;5021329;28;20049;-78
2023/03/31 05:31:49;;;;;;;0.90;0.90;;;10.50;99.90;;;;;;5021159;28;20060;-78
2023/03/31 05:34:15;;;;;;;1.00;1.00;;;10.50;99.90;;;;;;5016365;28;20049;-79
2023/03/31 05:36:42;;;;;;;1.02;1.02;;;10.40;99.90;;;;;;5019325;28;20090;-79
2023/03/31 05:39:08;;;;;;;1.00;1.00;;;10.30;99.90;;;;;;5027050;28;20044;-79
2023/03/31 05:41:34;;;;;;;1.00;1.00;;;10.40;99.90;;;;;;5017720;28;20060;-79
2023/03/31 05:44:01;;;;;;;1.00;1.00;;;10.40;99.90;;;;;;5035048;28;20047;-79
2023/03/31 05:46:27;;;;;;;1.00;1.00;;;10.50;99.90;;;;;;5026657;28;20124;-79
2023/03/31 05:48:53;;;;;;;1.00;1.00;;;10.40;99.90;;;;;;5029006;28;20056;-79
2023/03/31 05:51:18;;;;;;;1.00;1.00;;;10.30;99.90;;;;;;5009276;28;20053;-79
2023/03/31 05:53:44;;;;;;;1.00;1.00;;;10.40;99.90;;;;;;5030547;28;20561;-79
2023/03/31 05:56:11;;;;;;;1.00;1.00;;;10.30;99.90;;;;;;5007602;28;20146;-79
2023/03/31 05:58:37;;;;;;;1.10;1.10;;;10.40;99.90;;;;;;5028823;28;20041;-79
2023/03/31 06:01:08;;;;;;;1.08;1.08;;;10.30;99.90;;;;;;5026473;28;20057;-79
2023/03/31 06:03:36;;;;;;;1.10;1.10;;;10.40;99.90;;;;;;5020966;28;20843;-79
2023/03/31 06:06:04;;;;;;;1.00;1.00;;;10.30;99.90;;;;;;5001891;28;20068;-79
2023/03/31 06:08:30;;;;;;;1.02;1.02;;;10.50;99.90;;;;;;5027221;28;20053;-79
2023/03/31 06:10:56;;;;;;;1.10;1.10;;;10.40;99.90;;;;;;5028891;28;20045;-79
2023/03/31 06:13:22;;;;;;;1.00;1.00;;;10.50;99.90;;;;;;5013755;28;20036;-79
2023/03/31 06:15:55;;;;;;;1.00;1.00;;;10.40;99.90;;;;;;5036823;28;20114;-78
2023/03/31 06:18:21;;;;;;;1.00;1.00;;;10.50;99.90;;;;;;5037371;28;20110;-79
2023/03/31 06:20:47;;;;;;;1.00;1.00;;;10.50;99.90;;;;;;5035935;28;20041;-79
2023/03/31 06:23:13;;;;;;;1.00;1.00;;;10.40;99.90;;;;;;5017000;28;20493;-80
2023/03/31 06:25:39;;;;;;;1.00;1.00;;;10.50;99.90;;;;;;5030320;28;20075;-78
2023/03/31 06:28:07;;;;;;;1.08;1.08;;;10.50;99.90;;;;;;5033870;28;20102;-78
2023/03/31 06:30:33;;;;;;;1.00;1.00;;;10.50;99.90;;;;;;5034029;28;20048;-79
2023/03/31 06:32:59;;;;;;;1.05;1.05;;;10.50;99.90;;;;;;5036914;28;20048;-79
2023/03/31 06:35:25;;;;;;;0.95;0.95;;;10.50;99.90;;;;;;5019053;28;20049;-79
2023/03/31 06:37:51;;;;;;;1.02;1.02;;;10.60;99.90;;;;;;5021208;28;20059;-79
2023/03/31 06:40:17;;;;;;;1.00;1.00;;;10.50;99.90;;;;;;5038123;28;20049;-78
2023/03/31 06:42:43;;;;;;;1.00;1.00;;;10.50;99.90;;;;;;5041264;28;20044;-79
2023/03/31 06:45:09;;;;;;;1.00;1.00;;;10.70;99.90;;;;;;5018965;28;20099;-79
2023/03/31 06:47:37;;;;;;;1.10;1.10;;;10.60;99.90;;;;;;5038315;28;20086;-79
2023/03/31 06:50:03;;;;;;;1.08;1.08;;;10.70;99.90;;;;;;5022262;28;20527;-79
2023/03/31 06:52:30;;;;;;;1.00;1.00;;;10.70;99.90;;;;;;5040096;28;20072;-80
2023/03/31 06:54:56;;;;;;;1.00;1.00;;;10.70;99.90;;;;;;5036989;28;20052;-79
2023/03/31 06:57:22;;;;;;;1.00;1.00;;;10.80;99.90;;;;;;5040368;28;20517;-80
2023/03/31 06:59:48;;;;;;;1.00;1.00;;;10.80;99.90;;;;;;5033463;28;20099;-80
2023/03/31 07:02:13;;;;;;;0.95;0.95;;;10.80;99.90;;;;;;5038717;28;20043;-80
2023/03/31 07:04:39;;;;;;;0.90;0.90;;;10.80;99.90;;;;;;5038235;28;20397;-80
2023/03/31 07:07:05;;;;;;;1.00;1.00;;;10.80;99.90;;;;;;5038910;28;20033;-79
2023/03/31 07:09:30;;;;;;;1.00;1.00;;;10.80;99.90;;;;;;5039340;28;20041;-79
2023/03/31 07:11:56;;;;;;;0.90;0.90;;;10.80;99.90;;;;;;5040565;28;20051;-81
2023/03/31 07:14:22;;;;;;;1.00;1.00;;;10.80;99.90;;;;;;5022405;28;20048;-78
2023/03/31 07:16:49;;;;;;;1.00;1.00;;;10.90;99.90;;;;;;5033406;28;20482;-78
2023/03/31 07:19:15;;;;;;;0.90;0.90;;;10.80;99.90;;;;;;5038121;28;20044;-79
2023/03/31 07:21:40;;;;;;;1.00;1.00;;;10.90;99.90;;;;;;5037162;28;20029;-79
2023/03/31 07:24:06;;;;;;;0.90;0.90;;;10.80;99.90;;;;;;5038124;28;20418;-79
2023/03/31 07:26:32;;;;;;;0.98;0.98;;;10.70;99.90;;;;;;5037633;28;20052;-79
2023/03/31 07:28:58;;;;;;;1.00;1.00;;;10.80;99.90;;;;;;5021773;28;20041;-79
2023/03/31 07:31:24;;;;;;;0.90;0.90;;;10.70;99.90;;;;;;5043956;28;20049;-78
2023/03/31 07:33:49;;;;;;;1.00;1.00;;;10.90;99.90;;;;;;5044040;28;20489;-79
2023/03/31 07:36:15;;;;;;;0.90;0.90;;;10.80;99.90;;;;;;5040599;28;20045;-78
2023/03/31 07:38:43;;;;;;;1.00;1.00;;;11.00;99.90;;;;;;5042338;28;20084;-78
2023/03/31 07:41:14;;;;;;;0.90;0.90;;;10.90;99.90;;;;;;5042801;28;20418;-79
2023/03/31 07:43:40;;;;;;;0.90;0.90;;;10.90;99.90;;;;;;5044435;28;20509;-79
2023/03/31 07:46:07;;;;;;;0.90;0.90;;;11.00;99.90;;;;;;5023726;28;20053;-79
2023/03/31 07:48:33;;;;;;;0.90;0.90;;;11.00;99.90;;;;;;5025066;28;20136;-79
2023/03/31 07:50:59;;;;;;;0.98;0.98;;;11.00;99.90;;;;;;5043668;28;20128;-82
2023/03/31 07:53:25;;;;;;;0.93;0.93;;;11.00;99.90;;;;;;5021398;28;20466;-79
2023/03/31 07:55:50;;;;;;;0.95;0.95;;;11.00;99.90;;;;;;5038129;28;20087;-80
2023/03/31 07:58:16;;;;;;;0.90;0.90;;;11.00;99.90;;;;;;5042639;28;20056;-79
2023/03/31 08:00:42;;;;;;;0.90;0.90;;;11.00;99.90;;;;;;5024104;28;20065;-79
2023/03/31 08:03:07;;;;;;;0.98;0.98;;;11.10;99.90;;;;;;5037140;28;20048;-79
2023/03/31 08:05:33;;;;;;;0.90;0.90;;;11.10;99.90;;;;;;5029003;28;22040;-79
2023/03/31 08:07:59;;;;;;;0.90;0.90;;;11.10;99.90;;;;;;5033406;28;20359;-80
2023/03/31 08:10:26;;;;;;;0.90;0.90;;;11.10;99.90;;;;;;5036160;28;20044;-78
2023/03/31 08:12:52;;;;;;;0.80;0.80;;;11.20;99.90;;;;;;5025472;28;20106;-79
2023/03/31 08:15:18;;;;;;;0.88;0.88;;;11.20;99.90;;;;;;5023185;28;20067;-79
2023/03/31 08:17:44;;;;;;;0.90;0.90;;;11.10;99.90;;;;;;5023149;28;20746;-79
2023/03/31 08:20:11;;;;;;;0.85;0.85;;;11.30;99.90;;;;;;5038880;28;20045;-79
2023/03/31 08:22:38;;;;;;;0.80;0.80;;;11.30;99.90;;;;;;5039093;28;20049;-79
2023/03/31 08:25:07;;;;;;;0.80;0.80;;;11.30;99.90;;;;;;5021366;28;20555;-80
2023/03/31 08:27:38;;;;;;;0.80;0.80;;;11.40;99.90;;;;;;5039590;28;20486;-79
2023/03/31 08:30:06;;;;;;;0.90;0.90;;;11.40;99.90;;;;;;5025685;28;20055;-79
2023/03/31 08:32:32;;;;;;;0.80;0.80;;;11.40;99.90;;;;;;5039549;28;20051;-79
2023/03/31 08:34:59;;;;;;;0.80;0.80;;;11.60;99.90;;;;;;5039343;28;20080;-80
2023/03/31 08:37:27;;;;;;;0.80;0.80;;;11.50;99.90;;;;;;5019400;28;20105;-81
2023/03/31 08:39:54;;;;;;;0.80;0.80;;;11.50;99.90;;;;;;5039571;28;20060;-80
2023/03/31 08:42:46;;;;;;;0.80;0.80;;;11.50;99.90;;;;;;5039387;28;20057;-79
2023/03/31 08:45:32;;;;;;;0.80;0.80;;;11.50;99.90;;;;;;5023618;28;20842;-80
2023/03/31 08:48:18;;;;;;;0.88;0.88;;;11.50;99.90;;;;;;5037779;28;20040;-78
2023/03/31 08:50:53;;;;;;;0.80;0.80;;;11.60;99.90;;;;;;5038827;28;20094;-79
2023/03/31 08:53:28;;;;;;;0.77;0.77;;;11.50;99.90;;;;;;5023539;28;20589;-79
2023/03/31 08:55:56;;;;;;;0.80;0.80;;;11.60;99.90;;;;;;5039449;28;20045;-80
2023/03/31 08:58:42;;;;;;;0.80;0.80;;;11.50;99.90;;;;;;5039393;28;20124;-80
2023/03/31 09:01:31;;;;;;;0.80;0.80;;;11.70;99.90;;;;;;5023084;28;20045;-80
2023/03/31 09:04:42;;;;;;;0.80;0.80;;;11.60;99.90;;;;;;5039639;28;20120;-79
2023/03/31 09:07:27;;;;;;;0.80;0.80;;;11.50;99.90;;;;;;5020173;28;20626;-79
2023/03/31 09:10:11;;;;;;;0.80;0.80;;;11.60;99.90;;;;;;5039215;28;20048;-79
2023/03/31 09:12:55;;;;;;;0.75;0.75;;;11.90;99.90;;;;;;5024297;28;20044;-80
2023/03/31 09:15:35;;;;;;;0.73;0.73;;;12.00;99.90;;;;;;5039934;28;20045;-79
2023/03/31 09:18:30;;;;;;;0.85;0.85;;;12.00;99.90;;;;;;5031189;28;20061;-82
2023/03/31 09:21:32;;;;;;;0.82;0.82;;;12.00;99.90;;;;;;5021764;28;20057;-80
2023/03/31 09:24:06;;;;;;;0.77;0.77;;;11.80;99.90;;;;;;4998558;28;20165;-78
2023/03/31 09:26:44;;;;;;;0.80;0.80;;;11.70;99.90;;;;;;5018809;28;20161;-79
2023/03/31 09:29:18;;;;;;;0.80;0.80;;;11.80;99.90;;;;;;5023437;28;20148;-79
2023/03/31 09:31:45;;;;;;;0.73;0.73;;;11.70;99.90;;;;;;5027586;28;20041;-78
2023/03/31 09:34:27;;;;;;;0.73;0.73;;;11.60;99.90;;;;;;5018709;28;20043;-79
2023/03/31 09:36:53;;;;;;;0.70;0.70;;;11.80;99.90;;;;;;5033001;28;20045;-79
2023/03/31 09:39:19;;;;;;;0.70;0.70;;;11.90;99.90;;;;;;5019476;28;20045;-80
2023/03/31 09:41:48;;;;;;;0.80;0.80;;;11.90;99.90;;;;;;5037339;28;20095;-80
2023/03/31 09:44:38;;;;;;;0.70;0.70;;;11.80;99.90;;;;;;5036131;28;20072;-80
2023/03/31 09:47:08;;;;;;;0.73;0.73;;;11.80;99.90;;;;;;5022776;28;20053;-80
2023/03/31 09:49:35;;;;;;;0.73;0.73;;;11.80;99.90;;;;;;5037384;28;20037;-79
2023/03/31 09:52:24;;;;;;;0.70;0.70;;;11.80;99.90;;;;;;5021017;28;20044;-80
2023/03/31 09:54:51;;;;;;;0.70;0.70;;;11.90;99.90;;;;;;5029485;28;20049;-80
2023/03/31 09:57:27;;;;;;;0.70;0.70;;;11.80;99.90;;;;;;5033661;28;20463;-80
2023/03/31 10:00:06;;;;;;;0.73;0.73;;;11.70;99.90;;;;;;5020512;28;20037;-80
2023/03/31 10:02:32;;;;;;;0.80;0.80;;;11.70;99.90;;;;;;5036910;28;20152;-80
2023/03/31 10:04:58;;;;;;;0.70;0.70;;;11.60;99.90;;;;;;5013224;28;20086;-80
2023/03/31 10:07:25;;;;;;;0.70;0.70;;;11.60;99.90;;;;;;5001491;28;20054;-80
2023/03/31 10:09:53;;;;;;;0.75;0.75;;;11.60;99.90;;;;;;5019040;28;20112;-80
2023/03/31 10:12:23;;;;;;;0.80;0.80;;;11.70;99.90;;;;;;5018533;28;20044;-80
2023/03/31 10:14:54;;;;;;;0.75;0.75;;;11.80;99.90;;;;;;5011570;28;20075;-80
2023/03/31 10:17:22;;;;;;;0.75;0.75;;;11.70;99.90;;;;;;5034901;28;20036;-80
2023/03/31 10:20:05;;;;;;;0.70;0.70;;;11.90;99.90;;;;;;5020368;28;20049;-80
2023/03/31 10:22:31;;;;;;;0.70;0.70;;;11.90;99.90;;;;;;5035497;28;20069;-80
2023/03/31 10:25:31;;;;;;;0.77;0.77;;;11.90;99.90;;;;;;5034399;28;20053;-80
2023/03/31 10:28:00;;;;;;;0.70;0.70;;;11.90;99.90;;;;;;4985121;28;20576;-80
2023/03/31 10:30:34;;;;;;;0.70;0.70;;;11.90;99.90;;;;;;5019376;28;20049;-80
2023/03/31 10:33:04;;;;;;;0.70;0.70;;;12.10;99.90;;;;;;5016693;28;20041;-80
2023/03/31 10:35:35;;;;;;;0.70;0.70;;;12.40;99.90;;;;;;5017184;28;20068;-81
2023/03/31 10:38:10;;;;;;;0.70;0.70;;;12.40;99.90;;;;;;5037342;28;20077;-80
2023/03/31 10:40:36;;;;;;;0.70;0.70;;;12.20;99.90;;;;;;5014269;28;20048;-80
2023/03/31 10:43:16;;;;;;;0.80;0.80;;;12.10;99.90;;;;;;5039081;28;20131;-80
2023/03/31 10:45:55;;;;;;;0.70;0.70;;;12.10;99.90;;;;;;5033117;28;20167;-82
2023/03/31 10:48:28;;;;;;;0.70;0.70;;;12.30;99.90;;;;;;5019207;28;20106;-80
2023/03/31 10:51:00;;;;;;;0.80;0.80;;;12.30;99.90;;;;;;5038500;28;20087;-80
2023/03/31 10:53:25;;;;;;;0.70;0.70;;;12.30;99.90;;;;;;5035218;28;20048;-80
2023/03/31 10:56:12;;;;;;;0.70;0.70;;;12.20;99.90;;;;;;5036114;28;20081;-80
2023/03/31 10:59:16;;;;;;;0.73;0.73;;;12.10;99.90;;;;;;5018387;28;20103;-80
2023/03/31 11:02:01;;;;;;;0.60;0.60;;;12.10;99.90;;;;;;5038150;28;20048;-79
2023/03/31 11:04:55;;;;;;;0.70;0.70;;;12.30;99.90;;;;;;5039994;28;20535;-82
2023/03/31 11:07:45;;;;;;;0.70;0.70;;;12.40;99.90;;;;;;5035215;28;20072;-81
2023/03/31 11:10:34;;;;;;;0.70;0.70;;;12.40;99.90;;;;;;5041406;28;20088;-80
2023/03/31 11:13:28;;;;;;;0.80;0.80;;;12.50;99.90;;;;;;5024930;28;20043;-80
2023/03/31 11:16:02;;;;;;;0.73;0.73;;;12.40;99.90;;;;;;5029660;28;20071;-80
2023/03/31 11:18:59;;;;;;;0.70;0.70;;;12.40;99.90;;;;;;5038316;28;20083;-80
2023/03/31 11:21:49;;;;;;;0.70;0.70;;;12.70;99.90;;;;;;5040855;28;20044;-81
2023/03/31 11:24:24;;;;;;;0.70;0.70;;;12.70;99.90;;;;;;5042133;28;20091;-80
2023/03/31 11:27:08;;;;;;;0.70;0.70;;;12.80;99.90;;;;;;5036889;28;20118;-80
2023/03/31 11:29:46;;;;;;;0.70;0.70;;;12.80;99.90;;;;;;5024454;28;20489;-80
2023/03/31 11:32:41;;;;;;;0.73;0.73;;;12.80;99.90;;;;;;5042782;28;20056;-80
2023/03/31 11:35:13;;;;;;;0.70;0.70;;;13.20;99.90;;;;;;5040947;28;20120;-80
2023/03/31 11:38:21;;;;;;;0.70;0.70;;;13.20;99.90;;;;;;5040632;28;20746;-80
2023/03/31 11:40:55;;;;;;;0.70;0.70;;;13.30;99.90;;;;;;5041436;28;20124;-79
2023/03/31 11:43:46;;;;;;;0.73;0.73;;;13.40;99.90;;;;;;5041372;28;20047;-81
2023/03/31 11:46:31;;;;;;;0.70;0.70;;;13.40;99.90;;;;;;5041855;28;20083;-80
2023/03/31 11:49:15;;;;;;;0.70;0.70;;;13.30;99.90;;;;;;5038705;28;20053;-80
2023/03/31 11:51:55;;;;;;;0.80;0.80;;;13.30;99.90;;;;;;5043492;28;20041;-81
2023/03/31 11:54:46;;;;;;;0.70;0.70;;;13.30;99.90;;;;;;5023627;28;20049;-80
2023/03/31 11:57:21;;;;;;;0.63;0.63;;;13.20;99.90;;;;;;5010768;28;20505;-79
2023/03/31 11:59:54;;;;;;;0.70;0.70;;;13.30;99.90;;;;;;5024881;28;20128;-80
2023/03/31 12:02:30;;;;;;;0.70;0.70;;;13.20;99.90;;;;;;5040830;28;20045;-79
2023/03/31 12:04:57;;;;;;;0.65;0.65;;;13.30;99.90;;;;;;5040711;28;20420;-79
2023/03/31 12:07:37;;;;;;;0.70;0.70;;;13.70;99.90;;;;;;5042598;28;20188;-80
2023/03/31 12:10:21;;;;;;;0.70;0.70;;;13.90;99.90;;;;;;5039607;28;20041;-80
2023/03/31 12:12:53;;;;;;;0.70;0.70;;;14.00;99.90;;;;;;5040163;28;20308;-79
2023/03/31 12:15:37;;;;;;;0.68;0.68;;;14.00;99.90;;;;;;5039317;28;20041;-80
2023/03/31 12:18:13;;;;;;;0.70;0.70;;;14.20;99.90;;;;;;5024461;28;20622;-80
2023/03/31 12:20:49;;;;;;;0.70;0.70;;;14.10;99.90;;;;;;5022617;28;20059;-80
2023/03/31 12:23:19;;;;;;;0.80;0.80;;;14.00;99.90;;;;;;5041089;28;20044;-80
2023/03/31 12:26:35;;;;;;;0.70;0.70;;;14.00;99.90;;;;;;5018016;28;20121;-80
2023/03/31 12:29:14;;;;;;;0.70;0.70;;;13.90;99.90;;;;;;4995256;28;20060;-80
2023/03/31 12:31:44;;;;;;;0.63;0.63;;;14.00;99.90;;;;;;5015157;28;20045;-79
2023/03/31 12:34:17;;;;;;;0.70;0.70;;;14.20;99.90;;;;;;5008795;28;20048;-80
2023/03/31 12:36:50;;;;;;;0.63;0.63;;;14.40;99.90;;;;;;5025678;28;20060;-79
2023/03/31 12:39:42;;;;;;;0.70;0.70;;;14.60;99.90;;;;;;5010170;28;20140;-80
2023/03/31 12:42:39;;;;;;;0.80;0.80;;;14.40;99.90;;;;;;5027291;28;20047;-80
2023/03/31 12:45:30;;;;;;;0.70;0.70;;;14.20;99.90;;;;;;5013946;28;20382;-80
2023/03/31 12:48:14;;;;;;;0.70;0.70;;;14.10;99.90;;;;;;5010013;28;20053;-81
2023/03/31 12:50:55;;;;;;;0.70;0.70;;;14.20;99.90;;;;;;5007302;28;20481;-80
2023/03/31 12:53:45;;;;;;;0.60;0.60;;;14.20;99.90;;;;;;5024884;28;20091;-81
2023/03/31 12:56:11;;;;;;;0.70;0.70;;;14.50;99.90;;;;;;5017405;28;20043;-80
2023/03/31 12:58:39;;;;;;;0.63;0.63;;;14.30;99.90;;;;;;5004603;28;20092;-80
2023/03/31 13:01:15;;;;;;;0.63;0.63;;;14.20;99.90;;;;;;5028025;28;20041;-80
2023/03/31 13:03:46;;;;;;;0.70;0.70;;;14.10;99.90;;;;;;5017880;28;20045;-82
2023/03/31 13:06:31;;;;;;;0.63;0.63;;;14.00;99.90;;;;;;5008062;28;20401;-82
2023/03/31 13:08:57;;;;;;;0.70;0.70;;;14.00;99.90;;;;;;5007459;28;20074;-80
2023/03/31 13:11:32;;;;;;;0.70;0.70;;;14.00;99.90;;;;;;5029490;28;20080;-82
2023/03/31 13:14:01;;;;;;;0.70;0.70;;;14.10;99.90;;;;;;5006489;28;20068;-82
2023/03/31 13:16:34;;;;;;;0.60;0.60;;;14.10;99.90;;;;;;5022822;28;20199;-80
2023/03/31 13:19:00;;;;;;;0.70;0.70;;;14.00;99.90;;;;;;5008154;28;20045;-81